Pagina principale
METAR-TAF:

METAR-TAF

Aeroporti :

Aeroporto di Győr-Pér

Győr, Ungheria

latitudine: 47-37-28N, longitudine: 017-48-49E, altezza: 129 m

Osservazione

Il bollettino è stato emesso 26 minuti fa, alle 00:45 UTC
Vento 2 kt da nord
Temperature -2°C
Umidità 100%
Pressione 1003 hPa
Visibilità: 5000 m
Nuvoloso ad un'altezza di 500 ft
foschia

METAR: LHPR 240045Z AUTO 36002KT 5000 BR BKN005 M02/M02 Q1003 RMK YLO

Ora: 02:11 (01:11 UTC)

Previsione

Il bollettino è stato emesso 3 ore e 6 minuti fa, alle 22:05 UTC
Previsione valida dal 23 alle 22 UTC al 24 alle 03 UTC
Vento 3 kt da direzioni variabili
Visibilità: 5000 m
Cielo coperto ad un'altezza di 500 ft
foschia
Probabilità 40%
dal 23 alle 22 UTC al 24 alle 03 UTC
Visibilità: 1500 m
Cielo coperto ad un'altezza di 200 ft
(debole) nevischio, banchi di nebbia, foschia

TAF: LHPR 232205Z 2322/2403 VRB03KT 5000 BR OVC005 PROB40 2322/2403 1500 -SG BCFG BR OVC002

Osservazioni e previsioni meteorologiche di più di 4000 aeroporti (messaggi METAR e TAF).

Le stazioni disponibili sono rappresentate dai dischi gialli e rossi sulla carta.

Puntare il mouse per vedere il nome della stazione.

Clicca sopra per visualizzare le osservazioni e previsioni meteorologiche.

Per cambiare la mappa : fare clic sui pulsanti verdi con una croce nera per ingrandire, il pulsante verde con un trattino per diminuire, o sulla freccia verde per le mappe adiacenti.


METAR-TAF: